Time;durP1;ratioP1;P1;durP2;ratioP2;P2;SDS_P1;SDS_P2;PMS_P1;PMS_P2;Temp;Humidity;BMP_temperature;BMP_pressure;BME280_temperature;BME280_humidity;BME280_pressure;Samples;Min_cycle;Max_cycle;Signal;HPM_P1;HPM_P2
2023/11/11 00:01:51;;;;;;;5.45;3.10;;;;;;;;;;4973644;28;20022;-78
2023/11/11 00:04:16;;;;;;;5.43;3.55;;;;;;;;;;4973816;28;20105;-79
2023/11/11 00:06:42;;;;;;;6.40;3.45;;;;;;;;;;4977358;28;20031;-79
2023/11/11 00:09:10;;;;;;;5.55;3.45;;;;;;;;;;4979001;28;20451;-79
2023/11/11 00:11:36;;;;;;;5.28;3.20;;;;;;;;;;4969645;28;20023;-79
2023/11/11 00:14:01;;;;;;;5.85;3.30;;;;;;;;;;4959078;28;20030;-79
2023/11/11 00:16:30;;;;;;;5.20;3.58;;;;;;;;;;4973300;28;20033;-79
2023/11/11 00:18:56;;;;;;;5.47;3.33;;;;;;;;;;4953832;28;20122;-79
2023/11/11 00:21:21;;;;;;;7.80;3.40;;;;;;;;;;4975635;28;20125;-79
2023/11/11 00:23:47;;;;;;;4.93;3.05;;;;;;;;;;4971601;28;20041;-79
2023/11/11 00:26:12;;;;;;;6.30;3.33;;;;;;;;;;4978326;28;20485;-79
2023/11/11 00:28:40;;;;;;;5.70;3.50;;;;;;;;;;4974530;28;20033;-79
2023/11/11 00:31:09;;;;;;;5.03;3.30;;;;;;;;;;4956722;28;20027;-79
2023/11/11 00:33:35;;;;;;;7.78;4.35;;;;;;;;;;4979848;28;20038;-79
2023/11/11 00:36:01;;;;;;;7.63;4.13;;;;;;;;;;4975347;28;20026;-75
2023/11/11 00:38:27;;;;;;;5.82;4.35;;;;;;;;;;4974505;28;20026;-76
2023/11/11 00:40:52;;;;;;;7.03;4.35;;;;;;;;;;4959324;28;20053;-76
2023/11/11 00:43:18;;;;;;;6.88;3.92;;;;;;;;;;4976910;28;20374;-76
2023/11/11 00:45:43;;;;;;;9.88;4.43;;;;;;;;;;4970740;28;20046;-75
2023/11/11 00:48:09;;;;;;;7.72;4.30;;;;;;;;;;4966715;28;20022;-76
2023/11/11 00:50:36;;;;;;;7.45;3.92;;;;;;;;;;4975477;28;20041;-76
2023/11/11 00:53:02;;;;;;;5.25;3.60;;;;;;;;;;4976981;28;20030;-75
2023/11/11 00:55:27;;;;;;;8.23;3.70;;;;;;;;;;4978871;28;20117;-76
2023/11/11 00:57:53;;;;;;;6.72;3.60;;;;;;;;;;4968487;28;20109;-75
2023/11/11 01:00:21;;;;;;;6.53;3.50;;;;;;;;;;4966710;28;20045;-75
2023/11/11 01:02:48;;;;;;;5.40;3.45;;;;;;;;;;4978982;28;20022;-76
2023/11/11 01:05:13;;;;;;;5.78;3.30;;;;;;;;;;4974133;28;20080;-76
2023/11/11 01:07:39;;;;;;;6.63;3.20;;;;;;;;;;4971733;28;20019;-76
2023/11/11 01:10:04;;;;;;;6.47;3.25;;;;;;;;;;4977235;28;20380;-76
2023/11/11 01:12:30;;;;;;;6.60;3.03;;;;;;;;;;4960334;28;20026;-76
2023/11/11 01:14:55;;;;;;;8.65;3.67;;;;;;;;;;4961505;28;20396;-76
2023/11/11 01:17:21;;;;;;;6.53;3.08;;;;;;;;;;4971815;28;21164;-75
2023/11/11 01:19:47;;;;;;;6.03;3.00;;;;;;;;;;4970549;28;20030;-76
2023/11/11 01:22:19;;;;;;;4.63;2.90;;;;;;;;;;4969460;28;20038;-75
2023/11/11 01:24:45;;;;;;;6.32;2.80;;;;;;;;;;4961187;28;20038;-76
2023/11/11 01:27:11;;;;;;;5.25;2.70;;;;;;;;;;4958267;28;20098;-76
2023/11/11 01:29:38;;;;;;;10.60;2.75;;;;;;;;;;4976830;28;20488;-75
2023/11/11 01:32:05;;;;;;;5.13;2.72;;;;;;;;;;4972241;28;20030;-76
2023/11/11 01:34:30;;;;;;;5.75;2.40;;;;;;;;;;4977036;28;20033;-75
2023/11/11 01:36:56;;;;;;;7.43;2.42;;;;;;;;;;4973586;28;20026;-76
2023/11/11 01:39:23;;;;;;;4.97;2.28;;;;;;;;;;4978629;28;20444;-76
2023/11/11 01:41:48;;;;;;;3.92;2.33;;;;;;;;;;4975826;28;20500;-75
2023/11/11 01:44:14;;;;;;;6.03;2.60;;;;;;;;;;4961045;28;20049;-76
2023/11/11 01:46:40;;;;;;;7.63;2.28;;;;;;;;;;4953850;28;20404;-79
2023/11/11 01:49:06;;;;;;;5.35;2.10;;;;;;;;;;4973634;28;20057;-78
2023/11/11 01:51:32;;;;;;;5.70;2.40;;;;;;;;;;4956581;28;20026;-79
2023/11/11 01:53:59;;;;;;;7.95;2.10;;;;;;;;;;4956171;28;20029;-79
2023/11/11 01:56:25;;;;;;;6.05;1.98;;;;;;;;;;4959055;28;20043;-78
2023/11/11 01:58:50;;;;;;;7.28;2.30;;;;;;;;;;4967652;28;20169;-79
2023/11/11 02:01:16;;;;;;;6.10;2.22;;;;;;;;;;4953323;28;20034;-78
2023/11/11 02:03:42;;;;;;;5.70;2.00;;;;;;;;;;4973863;28;20593;-79
2023/11/11 02:06:09;;;;;;;5.20;1.83;;;;;;;;;;4974320;28;20046;-79
2023/11/11 02:08:36;;;;;;;5.57;2.05;;;;;;;;;;4974837;28;20034;-78
2023/11/11 02:11:05;;;;;;;4.65;1.80;;;;;;;;;;4955473;28;20023;-79
2023/11/11 02:13:35;;;;;;;4.30;1.52;;;;;;;;;;4952912;28;20454;-79
2023/11/11 02:16:05;;;;;;;3.78;1.33;;;;;;;;;;4965219;28;20037;-79
2023/11/11 02:18:31;;;;;;;4.75;1.60;;;;;;;;;;4946613;28;20033;-79
2023/11/11 02:20:56;;;;;;;3.13;1.30;;;;;;;;;;4966568;28;20026;-79
2023/11/11 02:23:33;;;;;;;3.35;1.50;;;;;;;;;;4964160;28;20041;-78
2023/11/11 02:25:59;;;;;;;3.65;1.33;;;;;;;;;;4950830;28;20465;-78
2023/11/11 02:28:24;;;;;;;4.45;1.48;;;;;;;;;;4963523;28;20035;-79
2023/11/11 02:30:50;;;;;;;2.75;1.10;;;;;;;;;;4967279;28;20023;-79
2023/11/11 02:33:15;;;;;;;4.18;1.40;;;;;;;;;;4965941;28;20121;-79
2023/11/11 02:35:40;;;;;;;5.05;1.20;;;;;;;;;;4969969;28;20054;-79
2023/11/11 02:38:06;;;;;;;5.15;1.23;;;;;;;;;;4961643;28;20114;-79
2023/11/11 02:40:31;;;;;;;3.92;1.00;;;;;;;;;;4963935;28;20404;-79
2023/11/11 02:42:57;;;;;;;4.97;1.13;;;;;;;;;;4979083;28;20034;-78
2023/11/11 02:45:23;;;;;;;2.15;1.02;;;;;;;;;;4978802;28;20058;-79
2023/11/11 02:47:49;;;;;;;3.58;0.90;;;;;;;;;;4977100;28;20018;-78
2023/11/11 02:50:14;;;;;;;4.00;0.90;;;;;;;;;;4960126;28;20089;-79
2023/11/11 02:52:39;;;;;;;3.85;1.20;;;;;;;;;;4979016;28;20023;-79
2023/11/11 02:55:05;;;;;;;4.47;1.30;;;;;;;;;;4980942;28;20093;-79
2023/11/11 02:57:31;;;;;;;2.28;0.85;;;;;;;;;;4973518;28;20026;-76
2023/11/11 02:59:56;;;;;;;1.17;0.63;;;;;;;;;;4960768;28;20037;-75
2023/11/11 03:02:24;;;;;;;4.97;0.88;;;;;;;;;;4956440;28;20400;-75
2023/11/11 03:04:49;;;;;;;2.38;0.80;;;;;;;;;;4971577;28;20033;-75
2023/11/11 03:07:15;;;;;;;3.58;0.80;;;;;;;;;;4954802;28;20034;-76
2023/11/11 03:09:40;;;;;;;2.25;0.80;;;;;;;;;;4969510;28;20061;-76
2023/11/11 03:12:07;;;;;;;2.28;0.70;;;;;;;;;;4953397;28;20057;-75
2023/11/11 03:14:32;;;;;;;3.03;0.70;;;;;;;;;;4976519;28;20505;-75
2023/11/11 03:16:58;;;;;;;2.95;0.82;;;;;;;;;;4970735;28;20030;-75
2023/11/11 03:19:24;;;;;;;4.50;0.93;;;;;;;;;;4972180;28;20109;-75
2023/11/11 03:21:49;;;;;;;2.83;0.90;;;;;;;;;;4966879;28;20019;-75
2023/11/11 03:24:15;;;;;;;3.72;0.90;;;;;;;;;;4953281;28;20031;-75
2023/11/11 03:26:40;;;;;;;3.20;0.90;;;;;;;;;;4950979;28;20027;-75
2023/11/11 03:29:06;;;;;;;4.18;0.80;;;;;;;;;;4969266;28;20037;-75
2023/11/11 03:31:31;;;;;;;3.15;0.77;;;;;;;;;;4970957;28;20030;-75
2023/11/11 03:33:57;;;;;;;2.05;0.77;;;;;;;;;;4956014;28;20799;-75
2023/11/11 03:36:22;;;;;;;4.57;0.90;;;;;;;;;;4977494;28;20030;-79
2023/11/11 03:38:48;;;;;;;6.22;1.23;;;;;;;;;;4981661;28;20072;-78
2023/11/11 03:41:13;;;;;;;2.55;0.60;;;;;;;;;;4961273;28;20039;-79
2023/11/11 03:43:40;;;;;;;4.65;1.10;;;;;;;;;;4972301;28;20081;-79
2023/11/11 03:46:05;;;;;;;2.72;0.82;;;;;;;;;;4977157;28;20030;-78
2023/11/11 03:48:31;;;;;;;3.50;1.15;;;;;;;;;;4976789;28;20022;-79
2023/11/11 03:50:57;;;;;;;4.50;1.00;;;;;;;;;;4976498;28;20026;-79
2023/11/11 03:53:23;;;;;;;2.35;0.80;;;;;;;;;;4975517;28;20097;-79
2023/11/11 03:55:49;;;;;;;2.10;0.90;;;;;;;;;;4974385;28;20123;-78
2023/11/11 03:58:14;;;;;;;3.75;0.90;;;;;;;;;;4983594;28;20169;-78
2023/11/11 04:00:44;;;;;;;3.58;1.23;;;;;;;;;;4971588;28;20038;-79
2023/11/11 04:03:10;;;;;;;2.42;1.20;;;;;;;;;;4973197;28;20515;-79
2023/11/11 04:05:36;;;;;;;3.35;1.35;;;;;;;;;;4967883;28;20424;-79
2023/11/11 04:08:03;;;;;;;3.10;1.38;;;;;;;;;;4948859;28;20161;-75
2023/11/11 04:10:30;;;;;;;6.78;1.10;;;;;;;;;;4965144;28;20547;-75
2023/11/11 04:13:00;;;;;;;3.03;1.40;;;;;;;;;;4967086;28;20126;-75
2023/11/11 04:15:26;;;;;;;4.88;1.33;;;;;;;;;;4966336;28;20034;-75
2023/11/11 04:17:51;;;;;;;4.20;1.40;;;;;;;;;;4967238;28;20034;-75
2023/11/11 04:20:17;;;;;;;3.75;1.40;;;;;;;;;;4950392;28;20492;-75
2023/11/11 04:22:43;;;;;;;4.88;1.45;;;;;;;;;;4978402;28;20034;-76
2023/11/11 04:25:11;;;;;;;4.68;1.50;;;;;;;;;;4969116;28;20019;-75
2023/11/11 04:27:38;;;;;;;5.60;1.33;;;;;;;;;;4972879;28;20120;-75
2023/11/11 04:30:06;;;;;;;5.65;2.00;;;;;;;;;;4949274;28;20027;-75
2023/11/11 04:32:32;;;;;;;3.80;1.50;;;;;;;;;;4946273;28;20031;-75
2023/11/11 04:34:58;;;;;;;5.53;1.80;;;;;;;;;;4967016;28;20046;-75
2023/11/11 04:37:23;;;;;;;4.43;1.75;;;;;;;;;;4973645;28;20084;-74
2023/11/11 04:39:49;;;;;;;4.70;1.77;;;;;;;;;;4957297;28;20034;-76
2023/11/11 04:42:17;;;;;;;4.75;1.80;;;;;;;;;;4972012;28;20034;-75
2023/11/11 04:44:43;;;;;;;5.93;1.70;;;;;;;;;;4974629;28;20030;-75
2023/11/11 04:47:09;;;;;;;5.40;1.80;;;;;;;;;;4977387;28;20073;-75
2023/11/11 04:49:38;;;;;;;5.88;2.00;;;;;;;;;;4972949;28;20058;-75
2023/11/11 04:52:05;;;;;;;4.70;1.73;;;;;;;;;;4953240;28;20035;-75
2023/11/11 04:54:33;;;;;;;4.70;1.63;;;;;;;;;;4969421;28;20117;-75
2023/11/11 04:57:01;;;;;;;5.57;1.60;;;;;;;;;;4974278;28;20029;-75
2023/11/11 04:59:28;;;;;;;6.50;1.60;;;;;;;;;;4969582;28;20038;-75
2023/11/11 05:01:54;;;;;;;6.43;1.50;;;;;;;;;;4971208;28;20030;-75
2023/11/11 05:04:23;;;;;;;1.70;1.10;;;;;;;;;;4962154;28;20039;-75
2023/11/11 05:06:49;;;;;;;5.40;1.60;;;;;;;;;;4966456;28;20022;-75
2023/11/11 05:09:15;;;;;;;3.70;1.27;;;;;;;;;;4965157;28;20037;-75
2023/11/11 05:11:41;;;;;;;2.72;1.25;;;;;;;;;;4947757;28;20053;-75
2023/11/11 05:14:10;;;;;;;2.72;1.38;;;;;;;;;;4948184;28;20485;-75
2023/11/11 05:16:39;;;;;;;2.72;1.23;;;;;;;;;;4947212;28;20023;-79
2023/11/11 05:19:08;;;;;;;2.58;1.25;;;;;;;;;;4949832;28;20042;-79
2023/11/11 05:21:34;;;;;;;2.88;1.40;;;;;;;;;;4965600;28;20030;-79
2023/11/11 05:24:00;;;;;;;4.30;1.52;;;;;;;;;;4963673;28;20042;-79
2023/11/11 05:26:27;;;;;;;3.78;1.55;;;;;;;;;;4965213;28;20025;-79
2023/11/11 05:28:55;;;;;;;3.45;1.33;;;;;;;;;;4972407;28;20110;-79
2023/11/11 05:31:21;;;;;;;3.58;1.40;;;;;;;;;;4973580;28;20117;-79
2023/11/11 05:33:47;;;;;;;3.25;1.67;;;;;;;;;;4951207;28;20443;-79
2023/11/11 05:36:13;;;;;;;1.75;1.10;;;;;;;;;;4968764;28;20030;-79
2023/11/11 05:38:40;;;;;;;3.00;1.23;;;;;;;;;;4972694;28;20026;-79
2023/11/11 05:41:05;;;;;;;2.35;1.30;;;;;;;;;;4967920;28;20035;-79
2023/11/11 05:43:31;;;;;;;4.65;1.60;;;;;;;;;;4948508;28;20488;-79
2023/11/11 05:45:56;;;;;;;4.20;1.70;;;;;;;;;;4970057;28;20034;-79
2023/11/11 05:48:22;;;;;;;5.65;1.98;;;;;;;;;;4966721;28;20385;-79
2023/11/11 05:50:47;;;;;;;4.57;1.95;;;;;;;;;;4948020;28;20027;-79
2023/11/11 05:53:14;;;;;;;4.20;1.70;;;;;;;;;;4968204;28;20457;-79
2023/11/11 05:55:39;;;;;;;4.25;1.73;;;;;;;;;;4967242;28;20062;-79
2023/11/11 05:58:05;;;;;;;4.55;1.40;;;;;;;;;;4971189;28;20035;-79
2023/11/11 06:00:30;;;;;;;3.55;1.67;;;;;;;;;;4964818;28;20030;-79
2023/11/11 06:02:56;;;;;;;3.38;2.20;;;;;;;;;;4964926;28;20027;-79
2023/11/11 06:05:21;;;;;;;5.78;1.98;;;;;;;;;;4963948;28;20034;-80
2023/11/11 06:07:47;;;;;;;6.78;2.30;;;;;;;;;;4950585;28;20384;-80
2023/11/11 06:10:12;;;;;;;5.07;2.25;;;;;;;;;;4965050;28;20381;-79
2023/11/11 06:12:38;;;;;;;6.43;2.20;;;;;;;;;;4948763;28;20065;-79
2023/11/11 06:15:05;;;;;;;5.32;2.03;;;;;;;;;;4966433;28;20038;-79
2023/11/11 06:17:31;;;;;;;4.35;2.15;;;;;;;;;;4967461;28;20122;-79
2023/11/11 06:19:58;;;;;;;3.67;1.90;;;;;;;;;;4962439;28;20459;-79
2023/11/11 06:22:23;;;;;;;3.88;1.95;;;;;;;;;;4968464;28;20101;-78
2023/11/11 06:24:48;;;;;;;5.28;2.17;;;;;;;;;;4966837;28;20476;-79
2023/11/11 06:27:14;;;;;;;5.82;2.30;;;;;;;;;;4951515;28;20539;-75
2023/11/11 06:29:39;;;;;;;5.80;2.53;;;;;;;;;;4954488;28;20034;-74
2023/11/11 06:32:05;;;;;;;4.57;2.15;;;;;;;;;;4969747;28;20023;-75
2023/11/11 06:34:31;;;;;;;7.07;2.40;;;;;;;;;;4969357;28;20404;-75
2023/11/11 06:36:57;;;;;;;6.97;2.28;;;;;;;;;;4970300;28;20070;-75
2023/11/11 06:39:22;;;;;;;7.18;2.50;;;;;;;;;;4973765;28;20062;-75
2023/11/11 06:41:48;;;;;;;5.32;1.98;;;;;;;;;;4951736;28;20516;-75
2023/11/11 06:44:13;;;;;;;5.22;1.98;;;;;;;;;;4953468;28;20059;-75
2023/11/11 06:46:38;;;;;;;5.97;2.92;;;;;;;;;;4972449;28;20037;-75
2023/11/11 06:49:04;;;;;;;6.72;2.70;;;;;;;;;;4972511;28;20023;-75
2023/11/11 06:51:30;;;;;;;7.57;2.95;;;;;;;;;;4953890;28;20030;-75
2023/11/11 06:53:56;;;;;;;4.72;2.92;;;;;;;;;;4966558;28;20026;-75
2023/11/11 06:56:21;;;;;;;5.68;2.90;;;;;;;;;;4973440;28;20118;-75
2023/11/11 06:58:47;;;;;;;5.88;3.47;;;;;;;;;;4968727;28;20109;-75
2023/11/11 07:01:12;;;;;;;5.28;3.40;;;;;;;;;;4949440;28;20023;-75
2023/11/11 07:03:39;;;;;;;6.88;3.38;;;;;;;;;;4960001;28;20077;-75
2023/11/11 07:06:06;;;;;;;4.90;3.13;;;;;;;;;;4967011;28;20037;-79
2023/11/11 07:08:32;;;;;;;7.40;3.33;;;;;;;;;;4969481;28;20472;-79
2023/11/11 07:11:00;;;;;;;6.63;2.97;;;;;;;;;;4968589;28;20134;-79
2023/11/11 07:13:26;;;;;;;9.35;3.92;;;;;;;;;;4965127;28;20472;-79
2023/11/11 07:15:51;;;;;;;7.40;3.35;;;;;;;;;;4962598;28;20042;-79
2023/11/11 07:18:17;;;;;;;6.32;2.72;;;;;;;;;;4965469;28;20101;-78
2023/11/11 07:20:43;;;;;;;5.70;2.90;;;;;;;;;;4971117;28;20784;-79
2023/11/11 07:23:08;;;;;;;7.90;3.10;;;;;;;;;;4951690;28;20052;-79
2023/11/11 07:25:35;;;;;;;9.05;2.60;;;;;;;;;;4969938;28;20030;-79
2023/11/11 07:28:04;;;;;;;6.47;2.85;;;;;;;;;;4959180;28;20033;-79
2023/11/11 07:30:29;;;;;;;6.05;2.78;;;;;;;;;;4969623;28;20030;-79
2023/11/11 07:32:57;;;;;;;6.40;2.78;;;;;;;;;;4969966;28;20022;-79
2023/11/11 07:35:22;;;;;;;6.75;2.80;;;;;;;;;;4971866;28;20022;-79
2023/11/11 07:37:49;;;;;;;7.50;2.85;;;;;;;;;;4970286;28;20097;-75
2023/11/11 07:40:15;;;;;;;5.80;2.65;;;;;;;;;;4973071;28;20034;-75
2023/11/11 07:42:43;;;;;;;4.20;2.45;;;;;;;;;;4955990;28;20094;-75
2023/11/11 07:45:09;;;;;;;4.43;2.40;;;;;;;;;;4952918;28;20902;-75
2023/11/11 07:47:35;;;;;;;4.65;2.45;;;;;;;;;;4968915;28;20050;-75
2023/11/11 07:50:01;;;;;;;5.50;2.47;;;;;;;;;;4969023;28;20045;-75
2023/11/11 07:52:26;;;;;;;5.60;2.92;;;;;;;;;;4970428;28;20055;-75
2023/11/11 07:54:53;;;;;;;6.20;2.83;;;;;;;;;;4971758;28;20061;-75
2023/11/11 07:57:18;;;;;;;8.55;2.95;;;;;;;;;;4949378;28;20033;-76
2023/11/11 07:59:44;;;;;;;4.95;2.78;;;;;;;;;;4965741;28;20053;-75
2023/11/11 08:02:12;;;;;;;6.40;3.00;;;;;;;;;;4974540;28;20026;-75
2023/11/11 08:04:38;;;;;;;6.18;2.72;;;;;;;;;;4974211;28;20185;-75
2023/11/11 08:07:04;;;;;;;5.63;2.88;;;;;;;;;;4971565;28;20487;-75
2023/11/11 08:09:31;;;;;;;6.05;2.90;;;;;;;;;;4959258;28;20038;-75
2023/11/11 08:11:56;;;;;;;5.60;2.60;;;;;;;;;;4973851;28;20026;-75
2023/11/11 08:14:22;;;;;;;3.80;2.40;;;;;;;;;;4960889;28;20035;-75
2023/11/11 08:16:47;;;;;;;5.80;2.70;;;;;;;;;;4970886;28;20034;-75
2023/11/11 08:19:12;;;;;;;8.40;3.03;;;;;;;;;;4954873;28;20038;-75
2023/11/11 08:21:38;;;;;;;7.53;3.25;;;;;;;;;;4960905;28;20476;-75
2023/11/11 08:24:05;;;;;;;7.47;2.55;;;;;;;;;;4972389;28;20440;-75
2023/11/11 08:26:31;;;;;;;8.77;3.38;;;;;;;;;;4974772;28;20054;-75
2023/11/11 08:28:58;;;;;;;7.07;2.92;;;;;;;;;;4954329;28;20059;-75
2023/11/11 08:31:23;;;;;;;5.78;2.53;;;;;;;;;;4970786;28;20023;-75
2023/11/11 08:33:49;;;;;;;4.00;2.60;;;;;;;;;;4969175;28;20037;-75
2023/11/11 08:36:14;;;;;;;5.82;3.10;;;;;;;;;;4964893;28;20069;-76
2023/11/11 08:38:40;;;;;;;6.78;2.63;;;;;;;;;;4973592;28;20090;-76
2023/11/11 08:41:05;;;;;;;6.32;3.00;;;;;;;;;;4974652;28;20514;-75
2023/11/11 08:43:30;;;;;;;9.00;3.13;;;;;;;;;;4973686;28;20030;-75
2023/11/11 08:45:56;;;;;;;5.10;2.70;;;;;;;;;;4975537;28;20030;-76
2023/11/11 08:48:24;;;;;;;7.18;2.97;;;;;;;;;;4971678;28;20477;-75
2023/11/11 08:50:50;;;;;;;4.78;2.88;;;;;;;;;;4969748;28;20405;-75
2023/11/11 08:53:15;;;;;;;6.45;2.75;;;;;;;;;;4955464;28;20035;-75
2023/11/11 08:55:47;;;;;;;8.60;3.47;;;;;;;;;;4958825;28;20077;-75
2023/11/11 08:58:13;;;;;;;6.80;3.00;;;;;;;;;;4972853;28;20066;-76
2023/11/11 09:00:40;;;;;;;5.35;2.70;;;;;;;;;;4974389;28;20029;-76
2023/11/11 09:03:06;;;;;;;7.57;3.15;;;;;;;;;;4983641;28;20030;-76
2023/11/11 09:05:31;;;;;;;5.53;2.90;;;;;;;;;;4972871;28;20041;-75
2023/11/11 09:07:57;;;;;;;5.97;3.17;;;;;;;;;;4974819;28;20556;-76
2023/11/11 09:10:23;;;;;;;7.22;3.17;;;;;;;;;;4977691;28;20033;-76
2023/11/11 09:12:48;;;;;;;7.80;3.30;;;;;;;;;;4951043;28;20113;-75
2023/11/11 09:15:16;;;;;;;6.35;2.90;;;;;;;;;;4982253;28;20384;-75
2023/11/11 09:17:42;;;;;;;5.65;3.13;;;;;;;;;;4969948;28;20086;-76
2023/11/11 09:20:09;;;;;;;10.40;3.38;;;;;;;;;;4966373;28;20532;-76
2023/11/11 09:22:35;;;;;;;9.23;4.20;;;;;;;;;;4956821;28;20031;-75
2023/11/11 09:25:01;;;;;;;7.25;3.30;;;;;;;;;;4959782;28;20030;-75
2023/11/11 09:27:26;;;;;;;8.02;3.63;;;;;;;;;;4955117;28;20029;-75
2023/11/11 09:29:52;;;;;;;6.43;4.00;;;;;;;;;;4959659;28;20835;-75
2023/11/11 09:32:17;;;;;;;7.47;4.50;;;;;;;;;;4965587;28;20460;-75
2023/11/11 09:34:45;;;;;;;8.85;4.60;;;;;;;;;;4971280;28;20109;-76
2023/11/11 09:37:11;;;;;;;8.38;4.65;;;;;;;;;;4968376;28;20039;-76
2023/11/11 09:39:36;;;;;;;12.30;5.00;;;;;;;;;;4964933;28;20035;-75
2023/11/11 09:42:03;;;;;;;10.10;4.43;;;;;;;;;;4965621;28;20720;-75
2023/11/11 09:44:28;;;;;;;9.38;4.47;;;;;;;;;;4968000;28;20113;-76
2023/11/11 09:46:57;;;;;;;9.13;5.03;;;;;;;;;;4966904;28;20040;-76
2023/11/11 09:49:27;;;;;;;9.85;4.90;;;;;;;;;;4967421;28;20141;-75
2023/11/11 09:51:54;;;;;;;8.95;4.72;;;;;;;;;;4976984;28;20109;-76
2023/11/11 09:54:19;;;;;;;9.85;5.10;;;;;;;;;;4962786;28;20113;-76
2023/11/11 09:56:45;;;;;;;9.07;5.15;;;;;;;;;;4943930;28;20118;-76
2023/11/11 09:59:12;;;;;;;15.02;4.40;;;;;;;;;;4959140;28;20680;-76
2023/11/11 10:01:38;;;;;;;8.85;4.65;;;;;;;;;;4981802;28;20037;-76
2023/11/11 10:04:04;;;;;;;9.00;4.63;;;;;;;;;;4966977;28;20029;-75
2023/11/11 10:06:31;;;;;;;11.30;4.90;;;;;;;;;;4952038;28;20141;-76
2023/11/11 10:08:56;;;;;;;9.25;4.50;;;;;;;;;;4950605;28;20524;-76
2023/11/11 10:11:22;;;;;;;15.32;4.78;;;;;;;;;;4949265;28;20035;-75
2023/11/11 10:13:48;;;;;;;9.90;4.30;;;;;;;;;;4968098;28;20436;-75
2023/11/11 10:16:21;;;;;;;7.18;4.03;;;;;;;;;;4966694;28;20577;-75
2023/11/11 10:18:49;;;;;;;7.95;3.63;;;;;;;;;;4967524;28;20027;-76
2023/11/11 10:21:16;;;;;;;9.38;4.30;;;;;;;;;;4950858;28;20030;-76
2023/11/11 10:23:44;;;;;;;10.75;3.60;;;;;;;;;;4965478;28;20098;-75
2023/11/11 10:26:10;;;;;;;7.15;4.03;;;;;;;;;;4963200;28;20042;-75
2023/11/11 10:28:35;;;;;;;7.38;4.07;;;;;;;;;;4963873;28;20591;-75
2023/11/11 10:31:06;;;;;;;8.65;4.22;;;;;;;;;;4964983;28;20066;-75
2023/11/11 10:33:32;;;;;;;8.77;3.75;;;;;;;;;;4962536;28;20114;-75
2023/11/11 10:35:57;;;;;;;10.55;4.25;;;;;;;;;;4946361;28;20480;-79
2023/11/11 10:38:23;;;;;;;7.78;4.22;;;;;;;;;;4972740;28;20035;-79
2023/11/11 10:40:48;;;;;;;9.55;4.10;;;;;;;;;;4968367;28;20090;-78
2023/11/11 10:43:14;;;;;;;7.57;3.50;;;;;;;;;;4961344;28;20044;-79
2023/11/11 10:45:41;;;;;;;7.45;3.53;;;;;;;;;;4959366;28;20038;-79
2023/11/11 10:48:07;;;;;;;8.80;3.40;;;;;;;;;;4936559;28;20027;-79
2023/11/11 10:50:33;;;;;;;4.53;2.35;;;;;;;;;;4960948;28;20039;-79
2023/11/11 10:53:00;;;;;;;5.32;2.53;;;;;;;;;;4957090;28;20035;-79
2023/11/11 10:55:29;;;;;;;4.78;2.08;;;;;;;;;;4960523;28;20031;-80
2023/11/11 10:57:56;;;;;;;5.53;1.90;;;;;;;;;;4961427;28;20530;-80
2023/11/11 11:00:24;;;;;;;4.35;1.80;;;;;;;;;;4964726;28;20404;-80
2023/11/11 11:02:52;;;;;;;3.63;1.45;;;;;;;;;;4965428;28;20031;-80
2023/11/11 11:05:59;;;;;;;2.97;1.30;;;;;;;;;;4952665;28;20035;-79
2023/11/11 11:08:35;;;;;;;4.53;1.50;;;;;;;;;;4948712;28;20058;-79
2023/11/11 11:11:21;;;;;;;3.72;1.58;;;;;;;;;;4963794;28;20042;-79
2023/11/11 11:13:53;;;;;;;4.35;1.80;;;;;;;;;;4958049;28;20031;-79
2023/11/11 11:16:28;;;;;;;6.45;2.08;;;;;;;;;;4949763;28;20027;-79
2023/11/11 11:18:57;;;;;;;4.05;2.33;;;;;;;;;;4974801;28;20038;-79
2023/11/11 11:21:25;;;;;;;5.70;2.17;;;;;;;;;;4960191;28;20030;-79
2023/11/11 11:23:51;;;;;;;3.75;2.10;;;;;;;;;;4964540;28;20041;-79
2023/11/11 11:26:28;;;;;;;4.78;2.47;;;;;;;;;;4961625;28;20014;-79
2023/11/11 11:29:13;;;;;;;6.85;2.60;;;;;;;;;;4965852;28;20034;-79
2023/11/11 11:32:08;;;;;;;4.72;2.17;;;;;;;;;;4960536;28;20480;-79
2023/11/11 11:35:32;;;;;;;9.40;2.90;;;;;;;;;;4965193;28;20074;-80
2023/11/11 11:37:58;;;;;;;9.70;3.17;;;;;;;;;;4864082;29;20068;-79
2023/11/11 11:40:23;;;;;;;9.70;4.05;;;;;;;;;;4866318;29;20037;-79
2023/11/11 11:42:50;;;;;;;6.25;3.20;;;;;;;;;;4892086;28;20053;-79
2023/11/11 11:45:15;;;;;;;7.25;3.17;;;;;;;;;;4955027;28;20038;-79
2023/11/11 11:47:42;;;;;;;7.05;2.83;;;;;;;;;;4962421;28;20059;-74
2023/11/11 11:50:07;;;;;;;7.85;2.92;;;;;;;;;;4958966;28;20034;-75
2023/11/11 11:52:36;;;;;;;14.48;6.80;;;;;;;;;;4960296;28;20038;-75
2023/11/11 11:55:02;;;;;;;8.20;4.22;;;;;;;;;;4959608;28;20804;-75
2023/11/11 11:57:27;;;;;;;9.30;3.78;;;;;;;;;;4932859;28;20034;-76
2023/11/11 12:00:13;;;;;;;7.20;3.60;;;;;;;;;;4935016;28;20432;-75
2023/11/11 12:02:40;;;;;;;8.10;3.70;;;;;;;;;;4959511;28;20027;-75
2023/11/11 12:05:06;;;;;;;6.72;3.90;;;;;;;;;;4972500;28;20121;-75
2023/11/11 12:07:32;;;;;;;8.57;3.50;;;;;;;;;;4964697;28;20019;-75
2023/11/11 12:09:58;;;;;;;6.63;3.92;;;;;;;;;;4942456;28;20041;-75
2023/11/11 12:12:28;;;;;;;9.80;3.70;;;;;;;;;;4948183;28;20034;-75
2023/11/11 12:14:53;;;;;;;8.68;3.30;;;;;;;;;;4944421;28;20038;-75
2023/11/11 12:17:20;;;;;;;7.00;3.92;;;;;;;;;;4943430;28;20035;-79
2023/11/11 12:19:47;;;;;;;8.93;4.35;;;;;;;;;;4949022;28;20030;-79
2023/11/11 12:22:13;;;;;;;7.28;3.63;;;;;;;;;;4959715;28;20555;-80
2023/11/11 12:24:40;;;;;;;4.47;3.42;;;;;;;;;;4947131;28;20039;-80
2023/11/11 12:27:07;;;;;;;9.00;3.45;;;;;;;;;;4942840;28;20106;-79
2023/11/11 12:29:40;;;;;;;6.50;2.95;;;;;;;;;;4956945;28;20650;-80
2023/11/11 12:32:12;;;;;;;3.55;1.30;;;;;;;;;;4959744;28;20069;-79
2023/11/11 12:34:37;;;;;;;6.22;2.15;;;;;;;;;;4962059;28;20105;-80
2023/11/11 12:37:03;;;;;;;3.47;1.33;;;;;;;;;;4968148;28;20027;-80
2023/11/11 12:39:28;;;;;;;2.80;1.20;;;;;;;;;;4973260;28;20041;-80
2023/11/11 12:41:55;;;;;;;4.75;1.48;;;;;;;;;;4957259;28;20999;-79
2023/11/11 12:44:25;;;;;;;3.92;1.55;;;;;;;;;;4957640;28;20054;-80
2023/11/11 12:46:51;;;;;;;5.32;1.88;;;;;;;;;;4968174;28;20335;-79
2023/11/11 12:49:18;;;;;;;3.38;1.40;;;;;;;;;;4948992;28;20049;-79
2023/11/11 12:51:44;;;;;;;3.20;1.42;;;;;;;;;;4963267;28;20093;-80
2023/11/11 12:54:11;;;;;;;3.70;1.63;;;;;;;;;;4951656;28;20043;-80
2023/11/11 12:56:54;;;;;;;5.53;1.70;;;;;;;;;;4945735;28;20030;-75
2023/11/11 12:59:23;;;;;;;3.63;1.92;;;;;;;;;;4956144;28;20192;-76
2023/11/11 13:01:50;;;;;;;2.47;1.30;;;;;;;;;;4959033;28;20104;-75
2023/11/11 13:04:17;;;;;;;5.70;1.85;;;;;;;;;;4964800;28;20076;-75
2023/11/11 13:06:43;;;;;;;3.65;1.40;;;;;;;;;;4963753;28;20024;-75
2023/11/11 13:09:14;;;;;;;3.80;1.48;;;;;;;;;;4939551;28;20510;-75
2023/11/11 13:11:46;;;;;;;6.15;1.65;;;;;;;;;;4964769;28;20045;-76
2023/11/11 13:14:13;;;;;;;3.35;1.40;;;;;;;;;;4944287;28;20081;-75
2023/11/11 13:16:38;;;;;;;4.07;1.60;;;;;;;;;;4947837;28;20381;-75
2023/11/11 13:19:09;;;;;;;3.10;1.30;;;;;;;;;;4960068;28;20132;-75
2023/11/11 13:21:35;;;;;;;5.63;2.30;;;;;;;;;;4969389;28;20042;-76
2023/11/11 13:24:01;;;;;;;6.80;3.13;;;;;;;;;;4958906;28;20034;-75
2023/11/11 13:26:28;;;;;;;5.18;3.22;;;;;;;;;;4959930;28;20026;-76
2023/11/11 13:28:54;;;;;;;6.38;1.77;;;;;;;;;;4939924;28;20054;-75
2023/11/11 13:31:24;;;;;;;3.72;1.40;;;;;;;;;;4963291;28;20485;-75
2023/11/11 13:33:52;;;;;;;3.38;1.30;;;;;;;;;;4963960;28;20125;-76
2023/11/11 13:36:23;;;;;;;4.00;2.00;;;;;;;;;;4943001;28;20031;-75
2023/11/11 13:38:50;;;;;;;4.75;1.20;;;;;;;;;;4945358;28;20129;-75
2023/11/11 13:41:15;;;;;;;4.22;1.35;;;;;;;;;;4960691;28;20636;-76
2023/11/11 13:43:48;;;;;;;3.47;1.48;;;;;;;;;;4945245;28;20030;-75
2023/11/11 13:46:14;;;;;;;1.58;0.85;;;;;;;;;;4957593;28;20026;-76
2023/11/11 13:48:40;;;;;;;2.42;0.90;;;;;;;;;;4961300;28;20034;-75
2023/11/11 13:51:07;;;;;;;3.15;1.00;;;;;;;;;;4943904;28;20023;-76
2023/11/11 13:53:33;;;;;;;4.50;1.00;;;;;;;;;;4941832;28;20034;-76
2023/11/11 13:56:02;;;;;;;5.20;0.85;;;;;;;;;;4955723;28;20303;-75
2023/11/11 13:58:28;;;;;;;2.65;1.15;;;;;;;;;;4960006;28;20038;-75
2023/11/11 14:00:53;;;;;;;5.13;1.40;;;;;;;;;;4964139;28;20030;-76
2023/11/11 14:03:21;;;;;;;3.97;1.50;;;;;;;;;;4955362;28;20030;-75
2023/11/11 14:05:47;;;;;;;3.70;1.10;;;;;;;;;;4971239;28;20049;-80
2023/11/11 14:08:13;;;;;;;2.88;1.00;;;;;;;;;;4958709;28;20031;-80
2023/11/11 14:10:38;;;;;;;4.22;1.40;;;;;;;;;;4951403;28;20076;-79
2023/11/11 14:13:04;;;;;;;5.10;1.45;;;;;;;;;;4942360;28;20042;-79
2023/11/11 14:15:39;;;;;;;2.40;1.20;;;;;;;;;;4960582;28;20069;-79
2023/11/11 14:18:08;;;;;;;4.85;1.38;;;;;;;;;;4958526;28;20028;-79
2023/11/11 14:20:33;;;;;;;6.60;1.27;;;;;;;;;;4942380;28;20069;-79
2023/11/11 14:22:59;;;;;;;4.50;1.30;;;;;;;;;;4944262;28;20109;-79
2023/11/11 14:25:24;;;;;;;6.05;2.45;;;;;;;;;;4941160;28;20038;-80
2023/11/11 14:27:49;;;;;;;4.43;1.23;;;;;;;;;;4963206;28;20063;-78
2023/11/11 14:30:16;;;;;;;3.15;1.10;;;;;;;;;;4961307;28;20512;-78
2023/11/11 14:32:42;;;;;;;2.60;0.93;;;;;;;;;;4948939;28;20050;-78
2023/11/11 14:35:20;;;;;;;4.03;1.05;;;;;;;;;;4944230;28;20264;-78
2023/11/11 14:37:46;;;;;;;2.30;0.80;;;;;;;;;;4945771;28;20348;-76
2023/11/11 14:40:21;;;;;;;3.50;0.93;;;;;;;;;;4959339;28;20639;-76
2023/11/11 14:42:48;;;;;;;1.77;0.82;;;;;;;;;;4965653;28;20068;-75